Time;durP1;ratioP1;P1;durP2;ratioP2;P2;SDS_P1;SDS_P2;PMS_P1;PMS_P2;Temp;Humidity;BMP_temperature;BMP_pressure;BME280_temperature;BME280_humidity;BME280_pressure;Samples;Min_cycle;Max_cycle;Signal;HPM_P1;HPM_P2
2022/07/11 00:00:07;;;;;;;1.73;1.00;;;14.90;99.90;;;;;;4937856;29;20039;-74
2022/07/11 00:02:33;;;;;;;2.83;1.02;;;14.90;99.90;;;;;;4933096;29;20485;-74
2022/07/11 00:04:59;;;;;;;2.63;0.90;;;14.90;99.90;;;;;;4934012;29;20147;-73
2022/07/11 00:07:24;;;;;;;2.38;1.10;;;14.90;99.90;;;;;;4934265;29;20028;-74
2022/07/11 00:09:50;;;;;;;2.83;0.82;;;14.90;99.90;;;;;;4933370;29;20106;-73
2022/07/11 00:12:16;;;;;;;2.70;1.10;;;14.90;99.90;;;;;;4932639;29;20040;-74
2022/07/11 00:14:42;;;;;;;2.78;0.85;;;14.90;99.90;;;;;;4932501;29;20458;-74
2022/07/11 00:17:08;;;;;;;1.55;1.00;;;14.90;99.90;;;;;;4932601;29;20125;-73
2022/07/11 00:19:38;;;;;;;1.38;0.90;;;14.90;99.90;;;;;;4933901;29;20118;-74
2022/07/11 00:22:05;;;;;;;2.73;1.37;;;15.00;99.90;;;;;;4934302;29;20388;-74
2022/07/11 00:24:30;;;;;;;2.20;0.95;;;14.90;99.90;;;;;;4934383;29;20032;-74
2022/07/11 00:26:56;;;;;;;1.48;1.13;;;15.00;99.90;;;;;;4932469;29;20079;-74
2022/07/11 00:29:22;;;;;;;1.67;0.90;;;15.00;99.90;;;;;;4930222;29;20048;-74
2022/07/11 00:31:47;;;;;;;1.35;0.70;;;15.00;99.90;;;;;;4933115;29;20024;-74
2022/07/11 00:34:14;;;;;;;2.28;0.93;;;15.00;99.90;;;;;;4934387;29;20059;-74
2022/07/11 00:36:40;;;;;;;0.70;0.70;;;15.00;99.90;;;;;;4933151;29;20389;-74
2022/07/11 00:39:06;;;;;;;1.25;0.88;;;15.00;99.90;;;;;;4933579;29;20051;-74
2022/07/11 00:41:31;;;;;;;1.35;1.10;;;15.00;99.90;;;;;;4933885;29;20028;-75
2022/07/11 00:43:59;;;;;;;1.48;1.00;;;15.00;99.90;;;;;;4933516;29;20656;-73
2022/07/11 00:46:27;;;;;;;1.92;0.95;;;15.00;99.90;;;;;;4925832;29;20038;-73
2022/07/11 00:48:53;;;;;;;2.22;1.00;;;15.00;99.90;;;;;;4933229;29;20062;-72
2022/07/11 00:51:20;;;;;;;1.10;0.88;;;15.00;99.90;;;;;;4932852;29;20063;-73
2022/07/11 00:53:51;;;;;;;1.88;0.85;;;15.00;99.90;;;;;;4932736;29;20051;-73
2022/07/11 00:56:20;;;;;;;2.28;1.20;;;15.00;99.90;;;;;;4934080;29;20024;-74
2022/07/11 00:58:49;;;;;;;1.40;1.00;;;15.00;99.90;;;;;;4919723;29;20038;-74
2022/07/11 01:01:16;;;;;;;1.58;0.93;;;15.00;99.90;;;;;;4932758;29;20028;-74
2022/07/11 01:03:42;;;;;;;2.20;0.93;;;14.90;99.90;;;;;;4932912;29;20028;-73
2022/07/11 01:06:08;;;;;;;3.08;1.70;;;14.90;99.90;;;;;;4932128;29;20417;-75
2022/07/11 01:08:35;;;;;;;1.33;1.00;;;14.90;99.90;;;;;;4933760;29;20032;-73
2022/07/11 01:11:05;;;;;;;0.98;0.93;;;14.90;99.90;;;;;;4932968;29;20048;-74
2022/07/11 01:13:31;;;;;;;1.95;1.27;;;14.80;99.90;;;;;;4937852;29;20032;-74
2022/07/11 01:16:26;;;;;;;1.20;1.00;;;14.80;99.90;;;;;;4919702;29;20032;-73
2022/07/11 01:18:53;;;;;;;1.20;1.10;;;14.80;99.90;;;;;;4931933;29;20035;-74
2022/07/11 01:21:25;;;;;;;3.22;1.48;;;14.80;99.90;;;;;;4934934;29;20127;-73
2022/07/11 01:23:53;;;;;;;2.05;1.30;;;14.80;99.90;;;;;;4935962;29;20043;-74
2022/07/11 01:26:20;;;;;;;2.65;1.55;;;14.80;99.90;;;;;;4937221;29;20058;-75
2022/07/11 01:28:46;;;;;;;2.20;1.40;;;14.80;99.90;;;;;;4935489;29;20039;-75
2022/07/11 01:31:12;;;;;;;1.60;1.20;;;14.70;99.90;;;;;;4939481;29;20050;-75
2022/07/11 01:33:39;;;;;;;1.98;1.25;;;14.70;99.90;;;;;;4933308;29;20031;-74
2022/07/11 01:36:05;;;;;;;1.73;1.58;;;14.70;99.90;;;;;;4937461;29;20036;-75
2022/07/11 01:38:31;;;;;;;1.42;1.33;;;14.70;99.90;;;;;;4931937;29;20122;-75
2022/07/11 01:40:56;;;;;;;1.60;1.20;;;14.60;99.90;;;;;;4928186;29;20107;-75
2022/07/11 01:43:22;;;;;;;2.05;1.40;;;14.70;99.90;;;;;;4937700;29;20079;-75
2022/07/11 01:45:54;;;;;;;2.25;1.52;;;14.60;99.90;;;;;;4937085;29;20544;-75
2022/07/11 01:48:20;;;;;;;1.30;1.20;;;14.60;99.90;;;;;;4937107;29;20027;-75
2022/07/11 01:50:47;;;;;;;2.17;1.80;;;14.60;99.90;;;;;;4936614;29;20047;-74
2022/07/11 01:53:13;;;;;;;1.77;1.67;;;14.60;99.90;;;;;;4937013;29;20048;-74
2022/07/11 01:55:39;;;;;;;3.10;1.77;;;14.60;99.90;;;;;;4934220;29;20024;-73
2022/07/11 01:58:05;;;;;;;2.70;2.00;;;14.60;99.90;;;;;;4936005;29;20027;-74
2022/07/11 02:00:30;;;;;;;2.72;1.48;;;14.60;99.90;;;;;;4938240;29;20106;-74
2022/07/11 02:02:56;;;;;;;2.00;1.80;;;14.60;99.90;;;;;;4935664;29;20024;-74
2022/07/11 02:05:22;;;;;;;2.05;1.60;;;14.60;99.90;;;;;;4935022;29;20517;-74
2022/07/11 02:10:32;;;;;;;1.85;1.65;;;14.70;99.90;;;;;;4936143;29;20449;-74
2022/07/11 02:12:59;;;;;;;1.52;1.42;;;14.70;99.90;;;;;;4931848;29;20025;-73
2022/07/11 02:15:28;;;;;;;1.77;1.67;;;14.70;99.90;;;;;;4935203;29;20059;-75
2022/07/11 02:17:54;;;;;;;2.15;1.65;;;14.70;99.90;;;;;;4929908;29;20414;-73
2022/07/11 02:20:21;;;;;;;2.05;1.67;;;14.70;99.90;;;;;;4936118;29;20066;-73
2022/07/11 02:22:48;;;;;;;2.65;1.70;;;14.80;99.90;;;;;;4934150;29;20181;-73
2022/07/11 02:25:17;;;;;;;2.08;1.88;;;14.80;99.90;;;;;;4935768;29;20043;-73
2022/07/11 02:27:43;;;;;;;3.42;1.98;;;14.80;99.90;;;;;;4934737;29;20023;-73
2022/07/11 02:30:09;;;;;;;2.03;1.65;;;14.80;99.90;;;;;;4933423;29;20039;-74
2022/07/11 02:32:36;;;;;;;1.90;1.55;;;14.90;99.90;;;;;;4936066;29;20103;-74
2022/07/11 02:35:02;;;;;;;1.88;1.70;;;14.90;99.90;;;;;;4934376;29;20684;-73
2022/07/11 02:37:28;;;;;;;2.38;1.70;;;14.90;99.90;;;;;;4934539;29;20107;-73
2022/07/11 02:39:53;;;;;;;1.92;1.58;;;14.90;99.90;;;;;;4935086;29;20036;-73
2022/07/11 02:42:19;;;;;;;2.80;1.80;;;15.00;99.90;;;;;;4935689;29;20051;-74
2022/07/11 02:44:45;;;;;;;1.90;1.75;;;15.00;99.90;;;;;;4934286;29;20099;-73
2022/07/11 02:47:11;;;;;;;1.70;1.60;;;15.00;99.90;;;;;;4931907;29;20024;-73
2022/07/11 02:49:37;;;;;;;1.85;1.75;;;15.00;99.90;;;;;;4935287;29;20122;-74
2022/07/11 02:52:03;;;;;;;2.50;2.00;;;15.00;99.90;;;;;;4934479;29;20035;-73
2022/07/11 02:54:29;;;;;;;2.28;1.80;;;15.10;99.90;;;;;;4935217;29;20052;-74
2022/07/11 02:56:55;;;;;;;3.78;1.75;;;15.10;99.90;;;;;;4934443;29;20094;-73
2022/07/11 02:59:21;;;;;;;2.70;2.10;;;15.10;99.90;;;;;;4936029;29;20031;-73
2022/07/11 03:01:47;;;;;;;2.05;1.80;;;15.10;99.90;;;;;;4934624;29;20032;-73
2022/07/11 03:04:13;;;;;;;2.15;1.80;;;15.10;99.90;;;;;;4932944;29;20028;-73
2022/07/11 03:06:39;;;;;;;2.20;1.70;;;15.10;99.90;;;;;;4934363;29;20032;-74
2022/07/11 03:09:08;;;;;;;2.35;1.70;;;15.10;99.90;;;;;;4934302;29;20569;-74
2022/07/11 03:11:34;;;;;;;1.75;1.58;;;15.10;99.90;;;;;;4918176;29;20119;-73
2022/07/11 03:14:00;;;;;;;1.75;1.65;;;15.10;99.90;;;;;;4934096;29;20068;-73
2022/07/11 03:16:27;;;;;;;3.42;2.13;;;15.20;99.90;;;;;;4933929;29;20039;-73
2022/07/11 03:18:53;;;;;;;1.70;1.60;;;15.10;99.90;;;;;;4934041;29;20027;-73
2022/07/11 03:21:19;;;;;;;1.83;1.73;;;15.20;99.90;;;;;;4926819;29;20083;-74
2022/07/11 03:23:44;;;;;;;2.53;1.90;;;15.20;99.90;;;;;;4933895;29;20079;-72
2022/07/11 03:26:11;;;;;;;2.25;1.83;;;15.20;99.90;;;;;;4934255;29;20470;-73
2022/07/11 03:28:36;;;;;;;2.58;2.00;;;15.20;99.90;;;;;;4933418;29;20031;-74
2022/07/11 03:31:02;;;;;;;2.45;1.70;;;15.20;99.90;;;;;;4932659;29;20130;-74
2022/07/11 03:33:28;;;;;;;2.97;1.90;;;15.20;99.90;;;;;;4933994;29;20027;-74
2022/07/11 03:35:53;;;;;;;2.13;1.73;;;15.20;99.90;;;;;;4931748;29;20038;-74
2022/07/11 03:38:20;;;;;;;1.63;1.52;;;15.30;99.90;;;;;;4932917;29;20393;-75
2022/07/11 03:40:47;;;;;;;2.72;1.88;;;15.30;99.90;;;;;;4930713;29;20503;-74
2022/07/11 03:43:13;;;;;;;3.78;1.95;;;15.30;99.90;;;;;;4934505;29;20032;-74
2022/07/11 03:45:39;;;;;;;3.00;2.17;;;15.30;99.90;;;;;;4927927;29;20046;-74
2022/07/11 03:48:06;;;;;;;3.55;2.08;;;15.30;99.90;;;;;;4933816;29;20039;-74
2022/07/11 03:50:35;;;;;;;2.58;2.17;;;15.30;99.90;;;;;;4933438;29;20130;-74
2022/07/11 03:53:02;;;;;;;3.03;2.40;;;15.30;99.90;;;;;;4933251;29;20106;-73
2022/07/11 03:55:28;;;;;;;2.42;2.22;;;15.30;99.90;;;;;;4927898;29;20035;-74
2022/07/11 03:57:54;;;;;;;2.70;1.95;;;15.30;99.90;;;;;;4933590;29;20059;-73
2022/07/11 04:00:20;;;;;;;3.33;1.80;;;15.40;99.90;;;;;;4937751;29;20094;-74
2022/07/11 04:02:47;;;;;;;3.63;2.15;;;15.30;99.90;;;;;;4933382;29;20400;-74
2022/07/11 04:05:13;;;;;;;2.40;2.20;;;15.40;99.90;;;;;;4932856;29;20063;-74
2022/07/11 04:07:39;;;;;;;2.42;2.22;;;15.40;99.90;;;;;;4934510;29;20114;-74
2022/07/11 04:10:06;;;;;;;3.80;2.00;;;15.50;99.90;;;;;;4931509;29;20078;-73
2022/07/11 04:12:32;;;;;;;2.00;1.90;;;15.50;99.90;;;;;;4933005;29;20043;-73
2022/07/11 04:14:57;;;;;;;5.80;2.30;;;15.50;99.90;;;;;;4932396;29;20036;-73
2022/07/11 04:17:23;;;;;;;3.38;2.30;;;15.50;99.90;;;;;;4932262;29;20031;-73
2022/07/11 04:19:48;;;;;;;4.07;2.60;;;15.60;99.90;;;;;;4933698;29;20039;-73
2022/07/11 04:22:14;;;;;;;2.30;2.10;;;15.60;99.90;;;;;;4934078;29;20366;-73
2022/07/11 04:24:40;;;;;;;2.67;1.92;;;15.70;99.90;;;;;;4934148;29;20024;-73
2022/07/11 04:27:06;;;;;;;2.60;2.10;;;15.60;99.90;;;;;;4930698;29;20922;-73
2022/07/11 04:29:31;;;;;;;3.05;2.00;;;15.60;99.90;;;;;;4933289;29;20044;-74
2022/07/11 04:31:57;;;;;;;2.67;2.00;;;15.60;99.90;;;;;;4933342;29;20035;-73
2022/07/11 04:34:22;;;;;;;4.68;2.40;;;15.70;99.90;;;;;;4933999;29;20059;-72
2022/07/11 04:36:48;;;;;;;3.00;2.08;;;15.70;99.90;;;;;;4933628;29;20059;-73
2022/07/11 04:39:14;;;;;;;2.28;2.00;;;15.70;99.90;;;;;;4932467;29;20037;-74
2022/07/11 04:41:39;;;;;;;3.70;2.30;;;15.70;99.90;;;;;;4933640;29;20028;-74
2022/07/11 04:44:05;;;;;;;2.70;2.30;;;15.70;99.90;;;;;;4928719;29;20575;-74
2022/07/11 04:46:31;;;;;;;3.15;2.00;;;15.80;99.90;;;;;;4933506;29;20485;-73
2022/07/11 04:48:58;;;;;;;3.20;2.08;;;15.80;99.90;;;;;;4936695;29;20462;-74
2022/07/11 04:51:24;;;;;;;4.78;2.50;;;15.90;99.90;;;;;;4937501;29;20035;-73
2022/07/11 04:53:50;;;;;;;3.15;2.20;;;15.90;99.90;;;;;;4937017;29;20076;-73
2022/07/11 04:56:16;;;;;;;3.40;2.47;;;16.00;99.90;;;;;;4936287;29;20508;-73
2022/07/11 04:58:42;;;;;;;2.25;2.00;;;16.00;99.90;;;;;;4940053;29;20028;-73
2022/07/11 05:01:09;;;;;;;2.47;2.28;;;16.10;99.90;;;;;;4933976;29;20139;-73
2022/07/11 05:03:34;;;;;;;3.72;2.50;;;16.10;99.90;;;;;;4937086;29;20035;-74
2022/07/11 05:06:00;;;;;;;3.88;2.90;;;16.20;99.90;;;;;;4936593;29;20465;-73
2022/07/11 05:08:26;;;;;;;4.10;2.75;;;16.30;99.90;;;;;;4936310;29;20096;-73
2022/07/11 05:10:52;;;;;;;2.97;2.05;;;16.30;99.90;;;;;;4936427;29;20046;-73
2022/07/11 05:13:18;;;;;;;3.80;2.97;;;16.40;99.90;;;;;;4936937;29;20107;-74
2022/07/11 05:15:44;;;;;;;4.68;2.95;;;16.40;99.90;;;;;;4937120;29;20469;-73
2022/07/11 05:18:10;;;;;;;11.20;4.10;;;16.50;99.90;;;;;;4929524;29;20031;-73
2022/07/11 05:20:36;;;;;;;11.70;3.85;;;16.60;99.90;;;;;;4934925;29;20417;-74
2022/07/11 05:23:01;;;;;;;2.97;2.45;;;16.70;99.90;;;;;;4935366;29;20032;-74
2022/07/11 05:25:28;;;;;;;5.05;2.80;;;16.80;99.90;;;;;;4936128;29;20187;-73
2022/07/11 05:27:53;;;;;;;3.35;2.88;;;16.90;99.90;;;;;;4934529;29;20450;-73
2022/07/11 05:30:19;;;;;;;3.97;3.03;;;17.00;99.90;;;;;;4935598;29;20042;-73
2022/07/11 05:32:44;;;;;;;2.85;2.65;;;17.20;99.90;;;;;;4935601;29;20071;-73
2022/07/11 05:35:10;;;;;;;6.20;2.53;;;17.20;99.90;;;;;;4932487;29;20100;-74
2022/07/11 05:37:36;;;;;;;3.25;2.63;;;17.40;99.90;;;;;;4935036;29;20466;-74
2022/07/11 05:40:02;;;;;;;3.55;2.40;;;17.50;99.90;;;;;;4933884;29;20037;-73
2022/07/11 05:42:28;;;;;;;3.30;2.80;;;17.60;99.90;;;;;;4934943;29;20035;-77
2022/07/11 05:44:54;;;;;;;4.78;2.50;;;17.70;99.90;;;;;;4932526;29;20092;-78
2022/07/11 05:47:20;;;;;;;3.55;3.03;;;17.80;99.90;;;;;;4935745;29;20043;-74
2022/07/11 05:49:46;;;;;;;7.18;3.65;;;18.00;99.90;;;;;;4934455;29;20040;-72
2022/07/11 05:52:11;;;;;;;6.75;3.78;;;18.00;99.90;;;;;;4931917;29;20054;-77
2022/07/11 05:54:37;;;;;;;5.25;2.95;;;18.10;99.90;;;;;;4935310;29;20481;-72
2022/07/11 05:57:03;;;;;;;7.53;3.53;;;18.10;99.90;;;;;;4934852;29;20032;-81
2022/07/11 05:59:29;;;;;;;5.28;2.85;;;18.00;99.90;;;;;;4936104;29;20032;-74
2022/07/11 06:01:55;;;;;;;3.97;2.90;;;18.10;99.90;;;;;;4933201;29;20035;-73
2022/07/11 06:04:21;;;;;;;4.60;3.00;;;18.10;99.90;;;;;;4935360;29;20047;-72
2022/07/11 06:06:47;;;;;;;4.15;2.70;;;18.10;99.90;;;;;;4935474;29;20393;-73
2022/07/11 06:09:13;;;;;;;4.78;3.10;;;18.20;99.90;;;;;;4933794;29;20083;-73
2022/07/11 06:11:39;;;;;;;4.05;3.17;;;18.20;99.90;;;;;;4937359;29;20039;-74
2022/07/11 06:14:07;;;;;;;4.68;2.75;;;18.30;99.90;;;;;;4937272;29;20039;-74
2022/07/11 06:16:33;;;;;;;5.47;2.78;;;18.30;99.90;;;;;;4940811;29;20016;-74
2022/07/11 06:18:59;;;;;;;6.45;2.78;;;18.40;99.90;;;;;;4933652;29;20462;-77
2022/07/11 06:21:25;;;;;;;6.00;2.55;;;18.40;99.90;;;;;;4935863;29;20035;-76
2022/07/11 06:23:52;;;;;;;6.07;2.78;;;18.40;99.90;;;;;;4939217;29;20023;-75
2022/07/11 06:26:17;;;;;;;4.90;2.53;;;18.50;99.90;;;;;;4944754;29;20023;-78
2022/07/11 06:28:43;;;;;;;8.18;3.00;;;18.50;99.90;;;;;;4947046;29;20066;-78
2022/07/11 06:31:09;;;;;;;4.57;3.03;;;18.50;99.90;;;;;;4951790;29;20092;-79
2022/07/11 06:33:35;;;;;;;6.72;2.88;;;18.50;99.90;;;;;;4954711;29;20031;-79
2022/07/11 06:36:01;;;;;;;4.65;2.83;;;18.60;99.90;;;;;;4946262;29;20038;-84
2022/07/11 06:38:29;;;;;;;4.68;2.50;;;18.60;99.90;;;;;;4933776;29;20030;-75
2022/07/11 06:40:55;;;;;;;4.97;2.95;;;18.70;99.90;;;;;;4936735;29;20118;-81
2022/07/11 06:43:21;;;;;;;4.22;3.30;;;18.80;99.90;;;;;;4942666;29;20031;-78
2022/07/11 06:45:47;;;;;;;5.22;3.28;;;18.80;99.90;;;;;;4936186;29;20106;-80
2022/07/11 06:48:13;;;;;;;7.07;4.20;;;18.80;99.90;;;;;;4936837;29;20040;-72
2022/07/11 06:50:39;;;;;;;3.63;3.13;;;18.80;99.90;;;;;;4943394;29;20066;-72
2022/07/11 06:53:05;;;;;;;4.35;3.17;;;18.90;99.90;;;;;;4939122;29;20466;-72
2022/07/11 06:55:31;;;;;;;3.53;2.95;;;19.00;99.90;;;;;;4936077;29;20654;-73
2022/07/11 06:57:57;;;;;;;8.48;2.85;;;19.10;99.90;;;;;;4942708;29;20429;-72
2022/07/11 07:00:23;;;;;;;6.50;2.50;;;19.30;99.90;;;;;;4928199;29;20031;-73
2022/07/11 07:02:48;;;;;;;7.90;3.10;;;19.50;99.90;;;;;;4936948;29;20050;-73
2022/07/11 07:05:14;;;;;;;6.13;2.90;;;19.60;99.90;;;;;;4933160;29;20023;-73
2022/07/11 07:07:40;;;;;;;4.05;2.83;;;19.60;99.90;;;;;;4937554;29;20038;-72
2022/07/11 07:10:06;;;;;;;6.00;3.10;;;19.70;99.90;;;;;;4934403;28;20106;-73
2022/07/11 07:12:34;;;;;;;6.20;2.80;;;19.80;99.90;;;;;;4939452;29;20434;-73
2022/07/11 07:15:00;;;;;;;6.50;2.80;;;19.90;99.90;;;;;;4931252;29;20038;-73
2022/07/11 07:17:26;;;;;;;5.85;3.08;;;20.10;99.90;;;;;;4933474;29;20533;-73
2022/07/11 07:19:51;;;;;;;6.60;2.97;;;20.20;99.90;;;;;;4931082;29;20051;-72
2022/07/11 07:22:17;;;;;;;4.15;2.25;;;20.30;99.90;;;;;;4929322;29;20069;-73
2022/07/11 07:24:43;;;;;;;7.82;3.15;;;20.30;99.80;;;;;;4934813;29;20094;-73
2022/07/11 07:27:09;;;;;;;6.18;2.70;;;20.40;99.60;;;;;;4933078;29;20477;-73
2022/07/11 07:29:35;;;;;;;8.10;2.72;;;20.50;99.40;;;;;;4935249;29;20050;-73
2022/07/11 07:32:01;;;;;;;4.15;2.40;;;20.60;99.10;;;;;;4934135;29;20039;-72
2022/07/11 07:34:26;;;;;;;3.17;2.40;;;20.80;99.10;;;;;;4937176;29;20393;-72
2022/07/11 07:36:52;;;;;;;3.80;2.03;;;21.00;99.90;;;;;;4934410;29;20028;-71
2022/07/11 07:39:18;;;;;;;5.78;2.10;;;21.00;98.50;;;;;;4929516;29;20391;-72
2022/07/11 07:41:43;;;;;;;6.10;2.78;;;21.10;98.00;;;;;;4936974;29;20031;-71
2022/07/11 07:44:09;;;;;;;4.65;2.20;;;21.20;97.70;;;;;;4933481;29;20472;-71
2022/07/11 07:46:35;;;;;;;4.35;2.45;;;21.30;97.30;;;;;;4933933;29;20493;-73
2022/07/11 07:49:02;;;;;;;6.03;1.80;;;21.30;97.30;;;;;;4933564;29;20397;-74
2022/07/11 07:51:29;;;;;;;1.95;1.63;;;21.40;97.30;;;;;;4937108;29;20473;-73
2022/07/11 07:53:54;;;;;;;3.47;1.98;;;21.60;96.80;;;;;;4936659;29;20050;-70
2022/07/11 07:56:20;;;;;;;3.38;2.10;;;21.80;96.40;;;;;;4937185;29;20383;-73
2022/07/11 07:58:47;;;;;;;3.47;1.83;;;22.00;96.00;;;;;;4938198;29;20082;-73
2022/07/11 08:03:57;;;;;;;4.65;1.90;;;22.20;95.30;;;;;;4936131;29;20400;-71
2022/07/11 08:06:22;;;;;;;2.75;1.80;;;22.30;95.20;;;;;;4940427;29;20035;-73
2022/07/11 08:08:49;;;;;;;2.25;1.30;;;22.40;94.80;;;;;;4932586;29;20024;-72
2022/07/11 08:11:16;;;;;;;6.15;1.70;;;22.50;94.60;;;;;;4930709;29;20067;-72
2022/07/11 08:13:42;;;;;;;4.28;1.40;;;22.60;94.20;;;;;;4944512;29;20031;-73
2022/07/11 08:16:07;;;;;;;3.92;1.10;;;22.70;94.00;;;;;;4919891;29;20042;-72
2022/07/11 08:18:34;;;;;;;2.03;1.40;;;22.80;92.70;;;;;;4933144;29;20066;-71
2022/07/11 08:21:00;;;;;;;2.13;1.40;;;22.60;92.80;;;;;;4937169;29;20032;-72
2022/07/11 08:23:26;;;;;;;2.35;1.40;;;22.50;93.50;;;;;;4942766;29;20477;-72
2022/07/11 08:25:52;;;;;;;1.48;1.30;;;22.50;93.50;;;;;;4937701;29;20397;-72
2022/07/11 08:28:18;;;;;;;3.67;1.48;;;22.60;96.10;;;;;;4937745;29;20024;-71
2022/07/11 08:30:44;;;;;;;2.42;1.40;;;22.60;94.50;;;;;;4936175;29;20035;-72
2022/07/11 08:33:10;;;;;;;1.67;1.58;;;22.70;93.80;;;;;;4936189;29;20035;-73
2022/07/11 08:35:36;;;;;;;3.00;1.50;;;22.70;97.30;;;;;;4949822;29;20086;-72
2022/07/11 08:38:01;;;;;;;2.38;1.10;;;22.40;96.50;;;;;;4939705;29;20027;-71
2022/07/11 08:40:27;;;;;;;2.17;1.40;;;22.60;95.50;;;;;;4941389;29;20047;-71
2022/07/11 08:42:56;;;;;;;9.68;1.50;;;22.70;96.20;;;;;;4941175;29;20473;-70
2022/07/11 08:45:28;;;;;;;6.18;1.65;;;22.50;94.00;;;;;;4938571;29;20028;-71
2022/07/11 08:47:54;;;;;;;2.85;1.13;;;22.60;92.20;;;;;;4941981;29;20089;-69
2022/07/11 08:50:22;;;;;;;1.88;1.33;;;22.80;92.10;;;;;;4937384;29;20482;-70
2022/07/11 08:52:48;;;;;;;1.33;1.23;;;22.60;91.20;;;;;;4939879;29;20020;-72
2022/07/11 08:55:13;;;;;;;1.50;0.88;;;22.60;91.50;;;;;;4933870;28;20829;-72
2022/07/11 08:57:39;;;;;;;0.63;0.60;;;22.60;91.00;;;;;;4940785;29;20133;-72
2022/07/11 09:00:08;;;;;;;1.98;0.85;;;22.60;90.60;;;;;;4938528;29;20047;-72
2022/07/11 09:02:35;;;;;;;2.42;0.95;;;22.90;90.40;;;;;;4936964;29;20036;-72
2022/07/11 09:05:08;;;;;;;3.50;0.73;;;23.00;88.80;;;;;;4943110;29;20087;-73
2022/07/11 09:07:41;;;;;;;1.38;0.50;;;23.20;87.10;;;;;;4936429;29;20027;-72
2022/07/11 09:10:07;;;;;;;0.93;0.55;;;23.30;86.10;;;;;;4937033;29;20044;-72
2022/07/11 09:12:33;;;;;;;2.08;1.70;;;23.60;84.90;;;;;;4937679;29;20064;-71
2022/07/11 09:15:00;;;;;;;3.42;1.70;;;23.80;86.10;;;;;;4938977;29;20067;-68
2022/07/11 09:17:32;;;;;;;3.38;1.70;;;24.00;86.40;;;;;;4938900;29;20031;-72
2022/07/11 09:19:58;;;;;;;3.47;1.85;;;24.10;86.00;;;;;;4939289;29;20035;-70
2022/07/11 09:25:31;;;;;;;20.25;2.40;;;24.10;86.30;;;;;;4938838;29;20480;-72
2022/07/11 09:28:04;;;;;;;11.57;1.77;;;24.20;85.40;;;;;;4933690;29;20125;-69
2022/07/11 09:30:39;;;;;;;5.35;1.30;;;24.30;84.00;;;;;;4936768;29;20048;-72
2022/07/11 09:33:07;;;;;;;21.02;2.25;;;24.50;83.80;;;;;;4938031;29;20381;-72
2022/07/11 09:35:36;;;;;;;34.88;2.80;;;24.60;84.20;;;;;;4940870;29;20058;-72
2022/07/11 09:38:22;;;;;;;6.20;1.92;;;24.90;83.20;;;;;;4939074;29;20035;-72
2022/07/11 09:40:48;;;;;;;17.50;1.90;;;25.00;82.40;;;;;;4938695;29;20040;-72
2022/07/11 09:43:23;;;;;;;25.80;2.50;;;25.10;82.00;;;;;;4936744;29;20035;-72
2022/07/11 09:45:48;;;;;;;2.50;1.42;;;25.30;81.30;;;;;;4938742;29;20044;-70
2022/07/11 09:48:14;;;;;;;12.00;1.50;;;25.30;79.70;;;;;;4939587;29;20589;-71
2022/07/11 09:50:53;;;;;;;2.65;0.90;;;25.10;80.30;;;;;;4942389;29;20062;-72
2022/07/11 09:53:20;;;;;;;4.82;1.10;;;24.90;80.90;;;;;;4938037;28;20364;-71
2022/07/11 09:55:46;;;;;;;10.27;1.27;;;25.00;80.40;;;;;;4938343;29;20105;-73
2022/07/11 09:58:14;;;;;;;1.55;1.15;;;25.20;81.00;;;;;;4939535;29;20027;-72
2022/07/11 10:00:40;;;;;;;5.18;1.00;;;25.50;78.00;;;;;;4937909;29;20496;-72
2022/07/11 10:03:07;;;;;;;0.50;0.50;;;25.50;77.40;;;;;;4935916;29;20500;-71
2022/07/11 10:05:33;;;;;;;1.88;0.60;;;25.20;76.60;;;;;;4936312;29;20032;-72
2022/07/11 10:08:00;;;;;;;3.78;0.70;;;25.00;77.10;;;;;;4939299;29;20032;-70
2022/07/11 10:10:27;;;;;;;2.28;0.88;;;24.90;76.80;;;;;;4936501;29;20477;-72
2022/07/11 10:12:54;;;;;;;2.33;0.95;;;24.90;78.30;;;;;;4937231;29;20034;-72
2022/07/11 10:15:34;;;;;;;1.77;1.00;;;24.80;78.40;;;;;;4935148;29;20043;-72
2022/07/11 10:18:00;;;;;;;2.65;1.25;;;24.50;78.60;;;;;;4934139;29;20024;-70
2022/07/11 10:20:31;;;;;;;1.95;1.13;;;24.40;78.30;;;;;;4935207;29;20059;-72
2022/07/11 10:23:23;;;;;;;1.63;0.98;;;24.20;79.10;;;;;;4936396;29;20035;-70
2022/07/11 10:26:23;;;;;;;0.73;0.63;;;24.10;79.50;;;;;;4937174;29;20045;-72
2022/07/11 10:29:12;;;;;;;2.00;0.80;;;24.00;79.90;;;;;;4938328;29;20051;-72
2022/07/11 10:31:37;;;;;;;3.35;0.90;;;24.00;80.50;;;;;;4923290;29;20059;-73
2022/07/11 10:34:18;;;;;;;1.75;0.60;;;24.30;81.20;;;;;;4934287;29;20039;-71
2022/07/11 10:36:45;;;;;;;2.70;1.60;;;24.70;80.10;;;;;;4938803;29;20026;-72
2022/07/11 10:39:27;;;;;;;2.05;0.85;;;25.10;78.70;;;;;;4935281;29;20473;-72
2022/07/11 10:41:54;;;;;;;0.77;0.77;;;25.40;79.90;;;;;;4932227;29;20027;-73
2022/07/11 10:44:20;;;;;;;1.23;0.95;;;25.40;76.80;;;;;;4931531;29;20016;-70
2022/07/11 10:46:45;;;;;;;1.25;0.90;;;25.30;77.00;;;;;;4935769;29;20397;-72
2022/07/11 10:49:14;;;;;;;0.80;0.80;;;25.20;76.90;;;;;;4936990;29;20023;-73
2022/07/11 10:51:49;;;;;;;2.15;1.20;;;25.00;77.50;;;;;;4938628;29;20039;-73
2022/07/11 10:54:44;;;;;;;2.30;0.90;;;24.90;77.20;;;;;;4932785;29;20051;-71
2022/07/11 10:57:25;;;;;;;3.50;0.90;;;25.00;77.20;;;;;;4936649;29;20469;-71
2022/07/11 11:00:01;;;;;;;1.55;0.80;;;25.10;76.80;;;;;;4936288;29;20031;-72
2022/07/11 11:02:28;;;;;;;1.23;0.93;;;25.20;77.20;;;;;;4934829;29;20034;-70
2022/07/11 11:04:59;;;;;;;1.50;1.08;;;25.20;76.70;;;;;;4940575;29;20024;-71
2022/07/11 11:07:38;;;;;;;1.65;1.00;;;25.20;76.50;;;;;;4933669;29;20030;-70
2022/07/11 11:10:17;;;;;;;3.05;0.60;;;25.20;76.80;;;;;;4931919;29;20043;-71
2022/07/11 11:13:04;;;;;;;1.83;0.95;;;25.30;77.50;;;;;;4935964;29;20060;-70
2022/07/11 11:15:39;;;;;;;2.22;0.90;;;25.40;76.10;;;;;;4940799;29;20484;-71
2022/07/11 11:18:25;;;;;;;1.70;1.00;;;25.40;75.40;;;;;;4935036;29;20151;-70
2022/07/11 11:21:02;;;;;;;1.33;1.13;;;25.30;75.20;;;;;;4933235;29;20043;-72
2022/07/11 11:23:29;;;;;;;2.13;0.95;;;25.30;75.40;;;;;;4940796;29;20035;-71
2022/07/11 11:26:04;;;;;;;5.97;1.20;;;25.30;75.80;;;;;;4937956;29;20031;-71
2022/07/11 11:28:29;;;;;;;1.67;0.77;;;25.30;76.30;;;;;;4937445;29;20031;-72
2022/07/11 11:30:57;;;;;;;1.40;1.27;;;25.30;75.20;;;;;;4931673;29;20106;-69
2022/07/11 11:33:29;;;;;;;9.90;1.50;;;25.20;75.20;;;;;;4937851;29;20086;-72
2022/07/11 11:36:03;;;;;;;0.90;0.90;;;25.20;75.50;;;;;;4932726;29;20031;-72
2022/07/11 11:38:32;;;;;;;1.70;0.90;;;25.40;75.50;;;;;;4935365;29;20032;-71
2022/07/11 11:40:58;;;;;;;3.35;1.00;;;25.50;74.90;;;;;;4932923;29;20042;-71
2022/07/11 11:43:24;;;;;;;2.03;0.70;;;25.70;75.10;;;;;;4933003;29;20028;-69
2022/07/11 11:45:51;;;;;;;0.90;0.82;;;25.90;74.20;;;;;;4934658;29;20492;-70
2022/07/11 11:48:29;;;;;;;1.13;1.13;;;26.20;73.40;;;;;;4934018;29;20509;-71
2022/07/11 11:51:06;;;;;;;1.52;1.30;;;26.60;73.10;;;;;;4933049;29;20043;-71
2022/07/11 11:53:40;;;;;;;0.70;0.70;;;26.80;72.10;;;;;;4932567;29;20056;-71
2022/07/11 11:56:29;;;;;;;2.20;1.10;;;27.00;72.50;;;;;;4928492;29;20056;-72
2022/07/11 11:59:05;;;;;;;2.22;1.27;;;27.60;71.10;;;;;;4931274;29;20079;-71
2022/07/11 12:01:35;;;;;;;3.35;1.17;;;27.50;70.30;;;;;;4936018;29;20123;-71
2022/07/11 12:04:05;;;;;;;1.13;0.98;;;27.10;71.60;;;;;;4933719;29;20362;-68
2022/07/11 12:06:33;;;;;;;1.50;1.10;;;27.10;71.30;;;;;;4932891;29;20522;-73
2022/07/11 12:09:05;;;;;;;1.23;1.17;;;27.50;70.70;;;;;;4932435;29;20130;-72
2022/07/11 12:11:31;;;;;;;2.13;1.00;;;27.50;70.20;;;;;;4934782;29;20040;-71
2022/07/11 12:13:58;;;;;;;1.83;1.08;;;26.80;70.80;;;;;;4936051;29;20476;-72
2022/07/11 12:16:43;;;;;;;1.30;1.20;;;26.70;71.20;;;;;;4938095;29;20495;-71
2022/07/11 12:19:20;;;;;;;1.05;1.05;;;26.60;71.30;;;;;;4931417;29;20054;-70
2022/07/11 12:21:49;;;;;;;1.00;1.00;;;26.50;71.60;;;;;;4931032;29;20058;-73
2022/07/11 12:24:23;;;;;;;1.10;1.10;;;26.30;71.50;;;;;;4940446;29;20032;-72
2022/07/11 12:26:49;;;;;;;1.38;1.20;;;26.20;72.00;;;;;;4934103;29;20032;-73
2022/07/11 12:29:25;;;;;;;1.02;1.02;;;25.90;72.40;;;;;;4937591;29;20050;-72
2022/07/11 12:31:53;;;;;;;1.30;1.20;;;25.70;73.40;;;;;;4933170;29;20028;-72
2022/07/11 12:34:31;;;;;;;1.40;1.23;;;25.60;73.60;;;;;;4939856;29;20109;-72
2022/07/11 12:37:03;;;;;;;1.60;0.93;;;25.70;73.90;;;;;;4932964;29;20039;-70
2022/07/11 12:39:31;;;;;;;3.28;1.20;;;25.90;73.60;;;;;;4933097;29;20026;-70
2022/07/11 12:41:59;;;;;;;4.15;1.17;;;26.20;73.70;;;;;;4935669;29;20023;-69
2022/07/11 12:47:23;;;;;;;2.95;1.23;;;26.80;72.00;;;;;;4932695;29;20175;-71
2022/07/11 12:49:48;;;;;;;1.30;0.90;;;26.80;72.00;;;;;;4936334;29;20047;-72
2022/07/11 12:52:15;;;;;;;1.33;1.23;;;26.70;71.30;;;;;;4933479;29;20132;-71
2022/07/11 12:54:42;;;;;;;1.25;1.05;;;26.50;71.90;;;;;;4936204;28;20520;-77
2022/07/11 12:57:10;;;;;;;2.83;1.02;;;26.40;72.30;;;;;;4939429;29;20038;-72
2022/07/11 12:59:38;;;;;;;1.58;1.35;;;26.50;71.90;;;;;;4937461;29;20028;-71